Time;durP1;ratioP1;P1;durP2;ratioP2;P2;SDS_P1;SDS_P2;PMS_P1;PMS_P2;Temp;Humidity;BMP_temperature;BMP_pressure;BME280_temperature;BME280_humidity;BME280_pressure;Samples;Min_cycle;Max_cycle;Signal;HPM_P1;HPM_P2
2023/09/29 00:01:56;;;;;;;4.82;3.42;;;23.10;99.90;;;;;;10055941;28;20530;-70
2023/09/29 00:06:47;;;;;;;7.03;3.45;;;22.70;99.90;;;;;;10058284;28;20060;-68
2023/09/29 00:11:37;;;;;;;6.20;3.92;;;22.60;99.90;;;;;;10056893;28;20124;-65
2023/09/29 00:16:29;;;;;;;6.28;3.42;;;22.70;99.90;;;;;;10056928;28;20478;-66
2023/09/29 00:21:20;;;;;;;5.43;3.15;;;22.60;99.90;;;;;;10054889;28;20094;-72
2023/09/29 00:26:10;;;;;;;6.40;3.40;;;22.70;99.90;;;;;;10056645;28;20055;-67
2023/09/29 00:31:02;;;;;;;5.95;2.70;;;22.70;99.90;;;;;;10060147;28;20045;-71
2023/09/29 00:35:53;;;;;;;6.18;3.33;;;22.40;99.90;;;;;;10053842;28;20025;-75
2023/09/29 00:40:43;;;;;;;5.68;3.28;;;22.30;99.90;;;;;;10055524;28;20048;-68
2023/09/29 00:45:35;;;;;;;4.55;2.83;;;22.20;99.90;;;;;;10055838;28;20030;-65
2023/09/29 00:50:26;;;;;;;6.30;3.28;;;22.30;99.90;;;;;;10055834;28;20483;-69
2023/09/29 00:55:19;;;;;;;8.55;4.20;;;22.20;99.90;;;;;;10055196;28;20045;-71
2023/09/29 01:00:14;;;;;;;6.40;3.22;;;22.30;99.90;;;;;;10052983;28;20088;-67
2023/09/29 01:05:05;;;;;;;4.87;3.53;;;22.20;99.90;;;;;;10047421;28;20040;-67
2023/09/29 01:09:56;;;;;;;5.53;3.22;;;22.10;99.90;;;;;;10049364;28;20562;-68
2023/09/29 01:14:47;;;;;;;5.00;4.20;;;22.00;99.90;;;;;;10042108;28;20061;-66
2023/09/29 01:19:38;;;;;;;5.80;4.22;;;21.90;99.90;;;;;;10059934;28;20513;-67
2023/09/29 01:24:29;;;;;;;4.07;2.92;;;22.20;99.90;;;;;;10032860;28;20029;-67
2023/09/29 01:29:19;;;;;;;4.85;3.15;;;22.20;99.90;;;;;;10047470;28;20053;-69
2023/09/29 01:34:13;;;;;;;7.53;3.20;;;22.30;99.90;;;;;;10054203;28;20087;-68
2023/09/29 01:39:04;;;;;;;4.13;2.95;;;22.20;99.90;;;;;;10052630;28;20084;-68
2023/09/29 01:43:55;;;;;;;6.03;3.13;;;22.10;99.90;;;;;;10040202;28;20145;-67
2023/09/29 01:48:45;;;;;;;5.93;3.15;;;22.00;99.90;;;;;;10058662;28;20037;-72
2023/09/29 01:53:36;;;;;;;5.10;3.25;;;21.80;99.90;;;;;;10054239;28;20025;-69
2023/09/29 01:58:27;;;;;;;4.25;2.92;;;22.00;99.90;;;;;;10048942;28;20033;-66
2023/09/29 02:03:18;;;;;;;7.20;3.38;;;22.00;99.90;;;;;;10052278;28;20018;-66
2023/09/29 02:08:09;;;;;;;5.32;3.17;;;21.90;99.90;;;;;;10049609;28;20033;-67
2023/09/29 02:13:03;;;;;;;5.72;3.40;;;21.90;99.90;;;;;;10053944;28;20029;-67
2023/09/29 02:17:54;;;;;;;7.07;3.08;;;21.90;99.90;;;;;;10048922;28;20148;-69
2023/09/29 02:22:45;;;;;;;5.28;2.75;;;21.90;99.90;;;;;;10043806;28;20033;-68
2023/09/29 02:27:36;;;;;;;6.43;3.38;;;21.90;99.90;;;;;;10039720;28;20045;-67
2023/09/29 02:32:27;;;;;;;6.25;2.75;;;21.70;99.90;;;;;;10068125;28;20360;-68
2023/09/29 02:37:18;;;;;;;6.00;3.50;;;21.90;99.90;;;;;;10059692;28;20037;-66
2023/09/29 02:42:08;;;;;;;4.82;3.00;;;21.90;99.90;;;;;;10061488;28;20017;-66
2023/09/29 02:47:00;;;;;;;4.43;2.95;;;21.70;99.90;;;;;;10064740;28;20047;-68
2023/09/29 02:51:50;;;;;;;4.45;2.70;;;21.60;99.90;;;;;;10057042;28;20371;-69
2023/09/29 02:56:41;;;;;;;4.63;2.90;;;21.60;99.90;;;;;;10059751;28;20059;-74
2023/09/29 03:01:32;;;;;;;5.63;3.08;;;21.60;99.90;;;;;;10059550;28;20550;-69
2023/09/29 03:06:23;;;;;;;4.35;2.70;;;21.60;99.90;;;;;;10054536;28;20443;-72
2023/09/29 03:11:16;;;;;;;5.90;3.00;;;21.70;99.90;;;;;;10057813;28;20034;-70
2023/09/29 03:16:10;;;;;;;5.00;3.00;;;21.80;99.90;;;;;;10058834;28;20022;-67
2023/09/29 03:21:01;;;;;;;4.63;2.80;;;21.50;99.90;;;;;;10058541;28;20217;-70
2023/09/29 03:25:52;;;;;;;5.68;3.28;;;21.50;99.90;;;;;;10058364;28;20491;-73
2023/09/29 03:30:42;;;;;;;3.85;2.78;;;21.70;99.90;;;;;;10056714;28;20173;-70
2023/09/29 03:35:33;;;;;;;4.60;3.33;;;21.60;99.90;;;;;;10060775;28;20040;-69
2023/09/29 03:40:26;;;;;;;8.50;2.58;;;21.30;99.90;;;;;;10061194;28;20539;-68
2023/09/29 03:45:17;;;;;;;4.97;3.17;;;21.40;99.90;;;;;;10057645;28;20033;-73
2023/09/29 03:50:12;;;;;;;5.43;3.47;;;21.40;99.90;;;;;;10056227;28;20029;-73
2023/09/29 03:55:03;;;;;;;4.18;2.83;;;21.40;99.90;;;;;;10057523;28;20033;-69
2023/09/29 03:59:54;;;;;;;6.07;3.30;;;21.50;99.90;;;;;;10057701;28;20052;-70
2023/09/29 04:04:44;;;;;;;5.50;3.35;;;21.50;99.90;;;;;;10056496;28;20033;-75
2023/09/29 04:09:35;;;;;;;4.05;3.03;;;21.50;99.90;;;;;;10057355;28;20053;-72
2023/09/29 04:14:26;;;;;;;3.75;2.42;;;21.40;99.90;;;;;;10056793;28;20029;-71
2023/09/29 04:19:16;;;;;;;3.75;2.70;;;21.30;99.90;;;;;;10055761;28;20109;-69
2023/09/29 04:24:07;;;;;;;5.05;2.53;;;21.30;99.90;;;;;;10056167;28;20033;-67
2023/09/29 04:28:58;;;;;;;4.28;3.10;;;21.20;99.90;;;;;;10055245;28;20507;-66
2023/09/29 04:33:48;;;;;;;4.50;2.70;;;21.00;99.90;;;;;;10063325;28;20406;-67
2023/09/29 04:38:41;;;;;;;3.95;2.58;;;21.10;99.90;;;;;;10053491;28;20060;-69
2023/09/29 04:43:31;;;;;;;4.00;2.72;;;21.00;99.90;;;;;;10055535;28;20028;-68
2023/09/29 04:48:23;;;;;;;5.00;3.65;;;20.90;99.90;;;;;;10055943;28;20544;-68
2023/09/29 04:53:13;;;;;;;3.33;2.58;;;20.90;99.90;;;;;;10054499;28;20398;-67
2023/09/29 04:58:04;;;;;;;8.73;2.67;;;20.80;99.90;;;;;;10055466;28;20064;-67
2023/09/29 05:02:54;;;;;;;5.88;3.45;;;20.90;99.90;;;;;;10052351;28;20033;-67
2023/09/29 05:07:45;;;;;;;5.68;3.35;;;20.90;99.90;;;;;;10055312;28;20346;-67
2023/09/29 05:12:36;;;;;;;4.40;2.83;;;20.90;99.90;;;;;;10054932;28;20482;-68
2023/09/29 05:17:26;;;;;;;4.03;2.60;;;20.80;99.90;;;;;;10054467;28;20088;-69
2023/09/29 05:22:17;;;;;;;5.53;2.90;;;20.80;99.90;;;;;;10058607;28;20462;-68
2023/09/29 05:27:08;;;;;;;4.53;2.90;;;21.00;99.90;;;;;;10055364;28;20509;-68
2023/09/29 05:31:58;;;;;;;4.05;3.03;;;21.00;99.90;;;;;;10055937;28;20025;-69
2023/09/29 05:36:49;;;;;;;5.43;3.25;;;21.00;99.90;;;;;;10053955;28;20041;-68
2023/09/29 05:41:39;;;;;;;4.97;3.65;;;21.00;99.90;;;;;;10054018;28;20506;-68
2023/09/29 05:46:30;;;;;;;4.03;3.05;;;21.00;99.90;;;;;;10055046;28;20033;-68
2023/09/29 05:51:21;;;;;;;5.47;2.92;;;21.00;99.90;;;;;;10051937;28;20122;-69
2023/09/29 05:56:13;;;;;;;4.22;3.30;;;21.00;99.90;;;;;;10062816;28;20099;-70
2023/09/29 06:01:11;;;;;;;6.03;2.75;;;21.00;99.90;;;;;;10060295;28;20060;-68
2023/09/29 06:06:03;;;;;;;3.72;2.60;;;21.00;99.90;;;;;;10059735;28;20033;-68
2023/09/29 06:10:53;;;;;;;5.30;2.80;;;21.10;99.90;;;;;;10059791;28;20060;-69
2023/09/29 06:15:44;;;;;;;4.00;2.78;;;21.20;99.90;;;;;;10060415;28;20506;-72
2023/09/29 06:20:35;;;;;;;4.35;2.72;;;21.20;99.90;;;;;;10059234;28;20526;-68
2023/09/29 06:25:25;;;;;;;6.05;2.92;;;21.30;99.90;;;;;;10059404;28;20061;-70
2023/09/29 06:30:16;;;;;;;7.68;3.70;;;21.30;99.90;;;;;;10059650;28;20045;-69
2023/09/29 06:35:07;;;;;;;4.45;2.47;;;21.20;99.90;;;;;;10065755;28;20503;-69
2023/09/29 06:39:57;;;;;;;6.15;3.47;;;21.10;99.90;;;;;;10059530;28;20149;-67
2023/09/29 06:44:48;;;;;;;5.57;2.58;;;21.10;99.90;;;;;;10054793;28;20119;-69
2023/09/29 06:49:39;;;;;;;8.18;3.05;;;21.20;99.90;;;;;;10055176;28;20036;-69
2023/09/29 06:54:31;;;;;;;7.68;3.53;;;21.10;99.90;;;;;;10056055;28;20116;-69
2023/09/29 06:59:21;;;;;;;9.65;3.47;;;21.20;99.90;;;;;;10043349;28;20037;-69
2023/09/29 07:04:12;;;;;;;5.47;2.45;;;21.10;99.90;;;;;;10048266;28;20026;-69
2023/09/29 07:09:03;;;;;;;4.80;2.88;;;21.10;99.90;;;;;;10046061;28;20030;-69
2023/09/29 07:13:54;;;;;;;7.15;2.70;;;21.10;99.90;;;;;;10056136;28;20087;-69
2023/09/29 07:18:45;;;;;;;6.50;3.35;;;21.20;99.90;;;;;;10054767;28;20095;-69
2023/09/29 07:23:36;;;;;;;4.90;2.30;;;21.20;99.90;;;;;;10046096;28;20064;-69
2023/09/29 07:28:27;;;;;;;4.30;2.47;;;21.20;99.90;;;;;;10050435;28;20407;-69
2023/09/29 07:33:17;;;;;;;3.88;2.25;;;21.20;99.90;;;;;;10065168;28;20143;-69
2023/09/29 07:38:08;;;;;;;4.38;2.33;;;21.20;99.90;;;;;;10057240;28;20060;-69
2023/09/29 07:42:59;;;;;;;5.38;3.65;;;21.20;99.90;;;;;;10054989;28;20364;-70
2023/09/29 07:47:50;;;;;;;5.95;2.38;;;21.30;99.90;;;;;;10060115;28;20215;-69
2023/09/29 07:52:40;;;;;;;8.43;3.05;;;21.30;99.90;;;;;;10056694;28;20387;-70
2023/09/29 07:57:31;;;;;;;5.53;2.40;;;21.30;99.90;;;;;;10056726;28;20033;-69
2023/09/29 08:02:22;;;;;;;5.30;2.47;;;21.40;99.90;;;;;;10056553;28;20021;-70
2023/09/29 08:07:13;;;;;;;6.05;2.58;;;21.40;99.90;;;;;;10054617;28;20494;-68
2023/09/29 08:12:04;;;;;;;2.72;1.88;;;21.60;99.90;;;;;;10053890;28;20021;-68
2023/09/29 08:16:54;;;;;;;7.40;2.78;;;21.60;99.90;;;;;;10054449;28;20040;-69
2023/09/29 08:21:46;;;;;;;4.18;2.17;;;21.80;99.90;;;;;;10047928;28;20081;-68
2023/09/29 08:26:37;;;;;;;5.68;2.50;;;21.80;99.90;;;;;;10046547;28;20072;-68
2023/09/29 08:31:28;;;;;;;4.35;2.78;;;21.80;99.90;;;;;;10062950;28;20040;-71
2023/09/29 08:36:19;;;;;;;7.68;2.95;;;21.80;99.90;;;;;;10053344;28;20033;-69
2023/09/29 08:41:10;;;;;;;4.13;2.53;;;21.90;99.90;;;;;;10056060;28;20041;-71
2023/09/29 08:46:03;;;;;;;5.63;2.88;;;21.90;99.90;;;;;;10055329;28;20028;-70
2023/09/29 08:50:57;;;;;;;4.30;2.67;;;22.00;99.90;;;;;;10051280;28;20033;-71
2023/09/29 08:55:49;;;;;;;4.25;3.53;;;22.10;99.90;;;;;;10049926;28;20490;-69
2023/09/29 09:00:40;;;;;;;3.75;2.45;;;22.10;99.90;;;;;;10049509;28;20859;-68
2023/09/29 09:05:31;;;;;;;5.88;3.10;;;22.20;99.90;;;;;;10053397;28;20104;-69
2023/09/29 09:10:32;;;;;;;6.72;3.60;;;22.30;99.90;;;;;;10057434;28;20044;-69
2023/09/29 09:15:26;;;;;;;5.63;3.20;;;22.30;99.90;;;;;;10053787;28;20022;-67
2023/09/29 09:20:16;;;;;;;3.65;2.65;;;22.40;99.90;;;;;;10050090;28;20112;-67
2023/09/29 09:25:08;;;;;;;5.78;2.92;;;22.50;99.90;;;;;;10045864;28;20561;-68
2023/09/29 09:30:00;;;;;;;6.47;2.75;;;22.50;99.90;;;;;;10061108;28;20052;-69
2023/09/29 09:34:51;;;;;;;4.38;2.80;;;22.60;99.90;;;;;;10060068;28;20068;-71
2023/09/29 09:39:43;;;;;;;4.40;2.67;;;22.70;99.90;;;;;;10064730;28;20407;-69
2023/09/29 09:44:38;;;;;;;5.28;3.22;;;22.80;99.90;;;;;;10062594;28;20487;-69
2023/09/29 09:49:36;;;;;;;5.00;2.70;;;22.80;99.90;;;;;;10061680;28;20025;-69
2023/09/29 09:54:31;;;;;;;6.10;3.17;;;22.90;99.90;;;;;;10061023;28;20433;-69
2023/09/29 09:59:25;;;;;;;6.35;2.40;;;22.90;99.90;;;;;;10061188;28;20056;-69
2023/09/29 10:04:16;;;;;;;5.88;2.30;;;23.00;99.90;;;;;;10061021;28;20029;-69
2023/09/29 10:09:13;;;;;;;4.38;2.70;;;23.00;99.90;;;;;;10069287;28;20044;-69
2023/09/29 10:14:06;;;;;;;5.18;2.65;;;23.10;99.90;;;;;;10060113;28;20040;-69
2023/09/29 10:18:59;;;;;;;6.38;3.75;;;23.20;99.90;;;;;;10060515;28;20052;-70
2023/09/29 10:23:50;;;;;;;5.90;3.25;;;23.20;99.90;;;;;;10058835;28;20490;-70
2023/09/29 10:28:41;;;;;;;4.15;2.55;;;23.30;99.90;;;;;;10055692;28;20061;-69
2023/09/29 10:33:32;;;;;;;5.55;2.65;;;23.60;99.90;;;;;;10068396;28;20033;-69
2023/09/29 10:38:24;;;;;;;4.38;3.35;;;23.50;99.90;;;;;;10058673;28;20893;-69
2023/09/29 10:43:18;;;;;;;5.72;2.35;;;23.60;99.90;;;;;;10060100;28;20033;-68
2023/09/29 10:48:10;;;;;;;3.95;2.33;;;23.70;99.90;;;;;;10060699;28;20029;-68
2023/09/29 10:53:02;;;;;;;3.97;2.58;;;23.90;99.90;;;;;;10053932;28;20033;-67
2023/09/29 10:57:58;;;;;;;4.25;2.15;;;24.10;99.90;;;;;;10054505;28;20045;-67
2023/09/29 11:02:49;;;;;;;3.38;2.25;;;24.10;99.90;;;;;;10055837;28;20458;-68
2023/09/29 11:07:58;;;;;;;4.80;3.03;;;24.20;99.90;;;;;;10054097;28;20040;-67
2023/09/29 11:12:49;;;;;;;5.88;2.47;;;24.20;99.90;;;;;;10050335;28;20040;-67
2023/09/29 11:17:49;;;;;;;4.63;2.78;;;24.50;99.90;;;;;;10047988;28;20133;-67
2023/09/29 11:22:39;;;;;;;3.53;2.30;;;24.70;99.90;;;;;;10057389;28;20552;-67
2023/09/29 11:27:32;;;;;;;4.93;2.03;;;24.70;99.90;;;;;;10059622;28;20046;-68
2023/09/29 11:32:22;;;;;;;3.20;1.95;;;24.60;99.90;;;;;;10065773;28;20029;-68
2023/09/29 11:37:13;;;;;;;2.50;2.08;;;24.80;99.90;;;;;;10054632;28;20056;-66
2023/09/29 11:42:04;;;;;;;4.22;1.70;;;25.10;99.90;;;;;;10057244;28;20029;-68
2023/09/29 11:46:55;;;;;;;4.20;1.90;;;25.20;99.90;;;;;;10058231;28;20254;-68
2023/09/29 11:51:45;;;;;;;2.95;2.40;;;25.40;99.90;;;;;;10056542;28;20037;-69
2023/09/29 11:56:36;;;;;;;3.45;2.85;;;25.40;99.90;;;;;;10054462;28;20037;-69
2023/09/29 12:01:27;;;;;;;2.78;1.95;;;25.30;99.90;;;;;;10063832;28;20013;-69
2023/09/29 12:06:17;;;;;;;3.17;2.08;;;25.30;99.90;;;;;;10051288;28;20032;-69
2023/09/29 12:11:09;;;;;;;2.25;1.60;;;25.40;99.90;;;;;;10056228;28;20033;-69
2023/09/29 12:16:00;;;;;;;3.03;1.45;;;25.30;99.90;;;;;;10057045;28;20033;-67
2023/09/29 12:20:52;;;;;;;2.33;1.83;;;25.20;99.90;;;;;;10056070;28;20119;-67
2023/09/29 12:25:43;;;;;;;3.90;1.60;;;25.20;99.90;;;;;;10060916;28;20033;-69
2023/09/29 12:30:34;;;;;;;3.17;1.67;;;25.10;99.90;;;;;;10056185;28;20462;-69
2023/09/29 12:35:25;;;;;;;3.65;1.48;;;25.10;99.90;;;;;;10061746;28;20406;-72
2023/09/29 12:40:16;;;;;;;3.22;1.80;;;25.20;99.90;;;;;;10051676;28;20051;-72
2023/09/29 12:45:10;;;;;;;2.72;1.70;;;25.30;99.90;;;;;;10055738;28;20442;-70
2023/09/29 12:50:00;;;;;;;5.15;2.65;;;25.30;99.90;;;;;;10054615;28;20443;-72
2023/09/29 12:54:51;;;;;;;3.20;2.88;;;25.30;99.90;;;;;;10055956;28;20112;-73
2023/09/29 12:59:42;;;;;;;6.07;2.30;;;25.30;99.90;;;;;;10051925;28;20052;-73
2023/09/29 13:04:32;;;;;;;3.70;2.22;;;25.40;99.90;;;;;;10062060;28;20025;-71
2023/09/29 13:09:23;;;;;;;3.03;2.17;;;25.50;99.90;;;;;;10064048;28;20061;-70
2023/09/29 13:14:14;;;;;;;9.13;2.75;;;25.50;99.90;;;;;;10059969;28;20105;-68
2023/09/29 13:19:05;;;;;;;5.05;2.50;;;25.60;99.90;;;;;;10056417;28;20099;-69
2023/09/29 13:23:55;;;;;;;5.40;3.15;;;25.50;99.90;;;;;;10053772;28;20025;-72
2023/09/29 13:28:46;;;;;;;6.32;3.05;;;25.40;99.90;;;;;;10056712;28;20058;-72
2023/09/29 13:33:37;;;;;;;7.45;3.60;;;25.40;99.90;;;;;;10070063;28;20037;-73
2023/09/29 13:38:28;;;;;;;10.57;3.72;;;25.30;99.90;;;;;;10061576;28;20410;-72
2023/09/29 13:43:19;;;;;;;8.02;3.63;;;25.30;99.90;;;;;;10062011;28;20041;-73
2023/09/29 13:48:10;;;;;;;12.40;5.10;;;25.40;99.90;;;;;;10062249;28;20040;-67
2023/09/29 13:53:01;;;;;;;11.88;6.13;;;25.50;99.90;;;;;;10061480;28;20364;-68
2023/09/29 13:57:52;;;;;;;13.45;6.47;;;25.60;99.90;;;;;;10059364;28;20045;-72
2023/09/29 14:02:43;;;;;;;13.55;6.82;;;25.50;99.90;;;;;;10061565;28;20037;-73
2023/09/29 14:07:33;;;;;;;16.50;6.97;;;25.40;99.90;;;;;;10057968;28;20029;-70
2023/09/29 14:12:24;;;;;;;11.45;6.07;;;25.40;99.90;;;;;;10059833;28;20036;-72
2023/09/29 14:17:15;;;;;;;10.15;4.43;;;25.50;99.90;;;;;;10061603;28;20046;-73
2023/09/29 14:22:05;;;;;;;14.07;5.57;;;25.50;99.90;;;;;;10061450;28;20048;-69
2023/09/29 14:26:56;;;;;;;16.45;5.85;;;25.40;99.90;;;;;;10061633;28;20418;-69
2023/09/29 14:31:47;;;;;;;11.02;4.97;;;25.40;99.90;;;;;;10063085;28;20112;-68
2023/09/29 14:36:37;;;;;;;18.20;6.43;;;25.30;99.90;;;;;;10060552;28;20048;-67
2023/09/29 14:41:29;;;;;;;14.50;6.15;;;25.30;99.90;;;;;;10059562;28;20037;-68
2023/09/29 14:46:19;;;;;;;12.52;6.10;;;25.30;99.90;;;;;;10061113;28;20044;-68
2023/09/29 14:51:11;;;;;;;19.38;8.35;;;25.30;99.90;;;;;;10059848;28;20491;-67
2023/09/29 14:56:09;;;;;;;24.98;8.70;;;25.60;99.90;;;;;;10058285;28;20041;-68
2023/09/29 15:01:00;;;;;;;24.75;10.40;;;25.50;99.90;;;;;;10056989;28;20038;-68
2023/09/29 15:05:51;;;;;;;22.23;10.57;;;25.40;99.90;;;;;;10053192;28;20034;-70
2023/09/29 15:10:42;;;;;;;26.35;10.52;;;25.60;99.90;;;;;;10057585;28;20091;-67
2023/09/29 15:15:33;;;;;;;25.48;9.90;;;25.60;99.90;;;;;;10062990;28;20025;-69
2023/09/29 15:20:24;;;;;;;28.17;10.25;;;25.70;99.90;;;;;;10058307;28;20313;-69
2023/09/29 15:25:15;;;;;;;27.02;11.38;;;25.70;99.90;;;;;;10057748;28;20030;-70
2023/09/29 15:30:06;;;;;;;23.48;10.40;;;25.70;99.90;;;;;;10057445;28;20064;-70
2023/09/29 15:34:56;;;;;;;25.92;11.80;;;25.70;99.90;;;;;;10066172;28;20029;-68
2023/09/29 15:39:48;;;;;;;29.70;11.57;;;25.60;99.90;;;;;;10057259;28;20034;-67
2023/09/29 15:44:38;;;;;;;26.60;11.40;;;25.40;99.90;;;;;;10058334;28;20387;-71
2023/09/29 15:49:29;;;;;;;25.85;9.98;;;25.30;99.90;;;;;;10057980;28;20030;-71
2023/09/29 15:54:20;;;;;;;24.48;10.88;;;25.20;99.80;;;;;;10057445;28;20033;-72
2023/09/29 15:59:11;;;;;;;22.42;9.25;;;25.20;99.70;;;;;;10057762;28;20040;-73
2023/09/29 16:04:01;;;;;;;20.85;9.18;;;25.00;99.60;;;;;;10055077;28;20423;-73
2023/09/29 16:08:52;;;;;;;19.30;7.45;;;25.00;99.50;;;;;;10055952;28;20032;-74
2023/09/29 16:13:43;;;;;;;18.42;7.03;;;25.00;99.40;;;;;;10055803;28;20103;-72
2023/09/29 16:18:35;;;;;;;18.50;7.40;;;25.10;99.20;;;;;;10056523;28;20719;-67
2023/09/29 16:23:25;;;;;;;18.83;6.85;;;25.10;99.00;;;;;;10054959;28;20645;-69
2023/09/29 16:28:16;;;;;;;11.00;5.88;;;25.20;98.90;;;;;;10055489;28;20134;-67
2023/09/29 16:33:07;;;;;;;15.98;7.50;;;25.10;98.90;;;;;;10064094;28;20049;-68
2023/09/29 16:37:58;;;;;;;13.60;6.85;;;25.10;98.80;;;;;;10062537;28;20030;-67
2023/09/29 16:42:48;;;;;;;12.10;5.70;;;25.10;98.80;;;;;;10058298;28;20094;-69
2023/09/29 16:47:39;;;;;;;16.20;6.63;;;25.00;98.70;;;;;;10055329;28;20037;-68
2023/09/29 16:52:30;;;;;;;12.52;5.55;;;25.10;98.60;;;;;;10055372;28;20033;-69
2023/09/29 16:57:21;;;;;;;14.75;5.47;;;25.10;98.60;;;;;;10053673;28;20041;-69
2023/09/29 17:02:12;;;;;;;12.60;5.57;;;25.00;98.60;;;;;;10055291;28;20129;-68
2023/09/29 17:07:03;;;;;;;10.20;5.05;;;25.00;98.50;;;;;;10048713;28;20457;-68
2023/09/29 17:11:54;;;;;;;11.32;5.40;;;25.00;98.50;;;;;;10054772;28;20034;-68
2023/09/29 17:16:44;;;;;;;15.93;5.82;;;24.90;98.60;;;;;;10056500;28;20041;-68
2023/09/29 17:21:35;;;;;;;15.02;6.68;;;24.90;98.50;;;;;;10055408;28;20041;-67
2023/09/29 17:26:27;;;;;;;12.88;5.47;;;24.80;98.60;;;;;;10054918;28;20029;-68
2023/09/29 17:31:18;;;;;;;11.65;5.28;;;24.80;98.60;;;;;;10060890;28;20075;-69
2023/09/29 17:36:10;;;;;;;9.60;3.95;;;24.70;98.60;;;;;;10054231;28;20025;-68
2023/09/29 17:41:01;;;;;;;10.48;3.90;;;24.60;98.60;;;;;;10058723;28;20507;-70
2023/09/29 17:45:51;;;;;;;9.63;4.60;;;24.60;98.60;;;;;;10054497;28;20018;-67
2023/09/29 17:50:42;;;;;;;9.45;4.00;;;24.50;98.60;;;;;;10060155;28;20095;-68
2023/09/29 17:55:33;;;;;;;7.40;3.92;;;24.50;98.70;;;;;;10062026;28;20113;-70
2023/09/29 18:00:24;;;;;;;7.60;3.30;;;24.50;98.70;;;;;;10059177;28;20391;-70
2023/09/29 18:05:15;;;;;;;9.05;3.85;;;24.30;98.80;;;;;;10062745;28;20034;-70
2023/09/29 18:10:06;;;;;;;7.95;4.85;;;24.30;99.00;;;;;;10061579;28;20040;-71
2023/09/29 18:14:57;;;;;;;9.98;4.93;;;24.20;99.00;;;;;;10060781;28;20017;-74
2023/09/29 18:19:47;;;;;;;6.45;2.80;;;24.30;99.10;;;;;;10060766;28;20491;-67
2023/09/29 18:24:38;;;;;;;5.97;2.90;;;24.20;99.20;;;;;;10060483;28;20034;-70
2023/09/29 18:29:29;;;;;;;4.15;3.17;;;24.10;99.50;;;;;;10060628;28;20053;-68
2023/09/29 18:34:20;;;;;;;5.65;2.25;;;24.10;99.50;;;;;;10061591;28;20022;-69
2023/09/29 18:39:13;;;;;;;5.03;2.20;;;24.10;99.70;;;;;;10060173;28;20037;-68
2023/09/29 18:44:04;;;;;;;5.25;1.83;;;24.10;99.80;;;;;;10060213;28;20108;-69
2023/09/29 18:48:55;;;;;;;5.45;3.08;;;24.00;99.90;;;;;;10053630;28;20583;-70
2023/09/29 18:53:45;;;;;;;6.95;3.35;;;24.00;99.90;;;;;;10054862;28;20104;-71
2023/09/29 18:58:36;;;;;;;5.93;2.78;;;23.90;99.90;;;;;;10040349;28;20046;-71
2023/09/29 19:03:26;;;;;;;8.35;3.97;;;23.90;99.90;;;;;;10042864;28;20101;-70
2023/09/29 19:08:18;;;;;;;5.97;2.47;;;23.80;99.90;;;;;;10039041;28;20423;-68
2023/09/29 19:13:09;;;;;;;6.55;2.30;;;23.90;99.90;;;;;;10053968;28;20060;-69
2023/09/29 19:18:00;;;;;;;3.38;1.67;;;23.90;99.90;;;;;;10052502;28;20479;-69
2023/09/29 19:22:51;;;;;;;5.28;1.75;;;23.80;99.90;;;;;;10057905;28;20033;-70
2023/09/29 19:27:43;;;;;;;3.50;1.55;;;23.70;99.90;;;;;;10044549;28;20040;-67
2023/09/29 19:32:35;;;;;;;3.45;1.70;;;23.70;99.90;;;;;;10066210;28;20065;-67
2023/09/29 19:37:26;;;;;;;6.30;2.65;;;23.80;99.90;;;;;;10061392;28;20037;-68
2023/09/29 19:42:17;;;;;;;5.30;1.60;;;23.70;99.90;;;;;;10055106;28;20021;-68
2023/09/29 19:47:08;;;;;;;4.75;2.38;;;23.60;99.90;;;;;;10060094;28;20592;-70
2023/09/29 19:51:58;;;;;;;4.57;2.00;;;23.60;99.90;;;;;;10057983;28;20029;-72
2023/09/29 19:56:49;;;;;;;3.60;1.77;;;23.60;99.90;;;;;;10057486;28;20240;-69
2023/09/29 20:01:40;;;;;;;4.40;1.55;;;23.60;99.90;;;;;;10057255;28;20034;-69
2023/09/29 20:06:30;;;;;;;7.13;1.90;;;23.40;99.90;;;;;;10051171;28;20026;-69
2023/09/29 20:11:22;;;;;;;3.00;1.27;;;23.40;99.90;;;;;;10055618;28;20380;-68
2023/09/29 20:16:15;;;;;;;3.30;1.55;;;23.30;99.90;;;;;;10046912;28;20087;-69
2023/09/29 20:21:06;;;;;;;3.53;1.30;;;23.20;99.90;;;;;;10055643;28;20037;-69
2023/09/29 20:25:59;;;;;;;4.30;1.95;;;23.30;99.90;;;;;;10056482;28;20033;-69
2023/09/29 20:30:50;;;;;;;2.45;2.03;;;23.30;99.90;;;;;;10056745;28;20053;-69
2023/09/29 20:35:40;;;;;;;9.07;1.77;;;23.30;99.90;;;;;;10061278;28;20470;-68
2023/09/29 20:40:32;;;;;;;4.85;1.38;;;23.30;99.90;;;;;;10055660;28;20487;-69
2023/09/29 20:45:22;;;;;;;4.22;1.40;;;23.20;99.90;;;;;;10053441;28;20028;-69
2023/09/29 20:50:13;;;;;;;4.70;1.60;;;23.10;99.90;;;;;;10055798;28;20048;-68
2023/09/29 20:55:04;;;;;;;4.50;2.13;;;23.10;99.90;;;;;;10055604;28;20033;-69
2023/09/29 20:59:55;;;;;;;4.78;1.70;;;23.10;99.90;;;;;;10055338;28;20724;-71
2023/09/29 21:04:46;;;;;;;1.83;1.20;;;23.00;99.90;;;;;;10056366;28;20571;-68
2023/09/29 21:09:37;;;;;;;3.25;1.48;;;23.00;99.90;;;;;;10050806;28;20028;-71
2023/09/29 21:14:28;;;;;;;3.55;1.10;;;23.00;99.90;;;;;;10053260;28;20041;-69
2023/09/29 21:19:20;;;;;;;2.95;1.30;;;23.10;99.90;;;;;;10056016;28;20120;-68
2023/09/29 21:24:11;;;;;;;5.30;2.20;;;23.00;99.90;;;;;;10061219;28;20498;-67
2023/09/29 21:29:02;;;;;;;3.63;1.55;;;23.00;99.90;;;;;;10064004;28;20046;-67
2023/09/29 21:33:55;;;;;;;4.40;1.65;;;22.90;99.90;;;;;;10072356;28;20467;-68
2023/09/29 21:38:45;;;;;;;3.90;1.42;;;22.90;99.90;;;;;;10061357;28;20490;-67
2023/09/29 21:43:36;;;;;;;2.85;0.85;;;22.80;99.90;;;;;;10061921;28;20041;-67
2023/09/29 21:48:26;;;;;;;4.88;1.42;;;22.80;99.90;;;;;;10059734;28;20034;-68
2023/09/29 21:53:17;;;;;;;5.78;1.63;;;22.70;99.90;;;;;;10060235;28;20422;-69
2023/09/29 21:58:08;;;;;;;2.95;1.55;;;22.70;99.90;;;;;;10059735;28;20514;-68
2023/09/29 22:02:58;;;;;;;3.47;1.35;;;22.70;99.90;;;;;;10065492;28;20506;-70
2023/09/29 22:07:49;;;;;;;3.95;1.48;;;22.70;99.90;;;;;;10061513;28;20091;-68
2023/09/29 22:12:40;;;;;;;4.30;1.65;;;22.70;99.90;;;;;;10061058;28;20034;-67
2023/09/29 22:17:31;;;;;;;4.85;1.67;;;22.60;99.90;;;;;;10061537;28;20046;-67
2023/09/29 22:22:22;;;;;;;4.68;1.48;;;22.50;99.90;;;;;;10059628;28;20035;-69
2023/09/29 22:27:13;;;;;;;4.60;2.25;;;22.50;99.90;;;;;;10060878;28;20048;-67
2023/09/29 22:32:04;;;;;;;3.42;1.25;;;22.40;99.90;;;;;;10071440;28;20045;-68
2023/09/29 22:36:55;;;;;;;6.00;1.30;;;22.40;99.90;;;;;;10057114;28;20487;-68
2023/09/29 22:41:46;;;;;;;3.95;1.48;;;22.40;99.90;;;;;;10060163;28;20041;-68
2023/09/29 22:46:37;;;;;;;2.67;1.17;;;22.30;99.90;;;;;;10063308;28;20479;-77
2023/09/29 22:51:27;;;;;;;3.30;0.95;;;22.40;99.90;;;;;;10059707;28;20272;-75
2023/09/29 22:56:18;;;;;;;2.35;1.17;;;22.40;99.90;;;;;;10060501;28;20029;-77
2023/09/29 23:01:09;;;;;;;3.85;1.23;;;22.40;99.90;;;;;;10060497;28;20111;-69
2023/09/29 23:06:01;;;;;;;2.22;1.10;;;22.40;99.90;;;;;;10055519;28;20557;-71
2023/09/29 23:10:52;;;;;;;3.65;1.83;;;22.40;99.90;;;;;;10058488;28;20045;-70
2023/09/29 23:15:43;;;;;;;2.22;1.33;;;22.20;99.90;;;;;;10065139;28;20029;-71
2023/09/29 23:20:37;;;;;;;2.40;1.10;;;22.20;99.90;;;;;;10056185;28;20458;-67
2023/09/29 23:25:28;;;;;;;2.70;1.38;;;22.20;99.90;;;;;;10059200;28;20071;-67
2023/09/29 23:30:19;;;;;;;2.58;1.80;;;22.10;99.90;;;;;;10058766;28;20115;-69
2023/09/29 23:35:10;;;;;;;3.78;1.25;;;22.10;99.90;;;;;;10062940;28;20029;-68
2023/09/29 23:40:00;;;;;;;4.15;1.35;;;22.10;99.90;;;;;;10056890;28;20044;-68
2023/09/29 23:44:51;;;;;;;2.28;0.98;;;22.00;99.90;;;;;;10056786;28;20100;-69
2023/09/29 23:49:42;;;;;;;2.05;1.00;;;22.00;99.90;;;;;;10056033;28;20029;-68
2023/09/29 23:54:32;;;;;;;1.92;1.13;;;21.90;99.90;;;;;;10059482;28;20022;-69
2023/09/29 23:59:23;;;;;;;2.65;1.38;;;21.80;99.90;;;;;;10057667;28;20499;-69
